sensor_id;sensor_type;location;lat;lon;timestamp;P1;durP1;ratioP1;P2;durP2;ratioP2
14584;SDS011;7379;51.506;11.876;2023-05-07T00:00:23;6.32;;;5.68;;
14584;SDS011;7379;51.506;11.876;2023-05-07T00:02:50;6.93;;;6.18;;
14584;SDS011;7379;51.506;11.876;2023-05-07T00:05:17;6.97;;;5.82;;
14584;SDS011;7379;51.506;11.876;2023-05-07T00:07:45;6.40;;;5.80;;
14584;SDS011;7379;51.506;11.876;2023-05-07T00:10:12;7.00;;;5.82;;
14584;SDS011;7379;51.506;11.876;2023-05-07T00:12:39;6.65;;;5.97;;
14584;SDS011;7379;51.506;11.876;2023-05-07T00:15:07;6.93;;;5.75;;
14584;SDS011;7379;51.506;11.876;2023-05-07T00:17:35;5.88;;;5.28;;
14584;SDS011;7379;51.506;11.876;2023-05-07T00:20:02;6.68;;;5.68;;
14584;SDS011;7379;51.506;11.876;2023-05-07T00:22:30;6.05;;;5.32;;
14584;SDS011;7379;51.506;11.876;2023-05-07T00:24:57;6.80;;;5.82;;
14584;SDS011;7379;51.506;11.876;2023-05-07T00:27:24;7.20;;;5.53;;
14584;SDS011;7379;51.506;11.876;2023-05-07T00:29:51;7.32;;;6.03;;
14584;SDS011;7379;51.506;11.876;2023-05-07T00:32:18;7.00;;;6.10;;
14584;SDS011;7379;51.506;11.876;2023-05-07T00:34:46;6.35;;;5.75;;
14584;SDS011;7379;51.506;11.876;2023-05-07T00:37:13;7.43;;;6.20;;
14584;SDS011;7379;51.506;11.876;2023-05-07T00:39:39;7.00;;;6.30;;
14584;SDS011;7379;51.506;11.876;2023-05-07T00:42:06;8.02;;;5.80;;
14584;SDS011;7379;51.506;11.876;2023-05-07T00:44:33;6.60;;;5.88;;
14584;SDS011;7379;51.506;11.876;2023-05-07T00:47:01;7.75;;;6.32;;
14584;SDS011;7379;51.506;11.876;2023-05-07T00:49:32;7.05;;;6.07;;
14584;SDS011;7379;51.506;11.876;2023-05-07T00:52:05;7.28;;;6.25;;
14584;SDS011;7379;51.506;11.876;2023-05-07T00:54:32;7.07;;;6.00;;
14584;SDS011;7379;51.506;11.876;2023-05-07T00:57:01;6.68;;;5.97;;
14584;SDS011;7379;51.506;11.876;2023-05-07T00:59:28;7.65;;;6.20;;
14584;SDS011;7379;51.506;11.876;2023-05-07T01:01:56;6.68;;;5.70;;
14584;SDS011;7379;51.506;11.876;2023-05-07T01:04:22;6.43;;;5.65;;
14584;SDS011;7379;51.506;11.876;2023-05-07T01:06:49;6.00;;;5.40;;
14584;SDS011;7379;51.506;11.876;2023-05-07T01:09:18;6.68;;;5.93;;
14584;SDS011;7379;51.506;11.876;2023-05-07T01:11:46;6.57;;;5.40;;
14584;SDS011;7379;51.506;11.876;2023-05-07T01:14:13;6.93;;;5.80;;
14584;SDS011;7379;51.506;11.876;2023-05-07T01:16:40;5.90;;;5.18;;
14584;SDS011;7379;51.506;11.876;2023-05-07T01:19:07;7.18;;;5.60;;
14584;SDS011;7379;51.506;11.876;2023-05-07T01:21:36;6.70;;;5.35;;
14584;SDS011;7379;51.506;11.876;2023-05-07T01:24:06;6.30;;;5.70;;
14584;SDS011;7379;51.506;11.876;2023-05-07T01:26:33;6.05;;;5.38;;
14584;SDS011;7379;51.506;11.876;2023-05-07T01:29:00;6.13;;;5.53;;
14584;SDS011;7379;51.506;11.876;2023-05-07T01:31:27;5.78;;;5.18;;
14584;SDS011;7379;51.506;11.876;2023-05-07T01:33:54;6.70;;;5.50;;
14584;SDS011;7379;51.506;11.876;2023-05-07T01:36:24;6.20;;;4.90;;
14584;SDS011;7379;51.506;11.876;2023-05-07T01:38:53;6.10;;;5.43;;
14584;SDS011;7379;51.506;11.876;2023-05-07T01:41:24;6.03;;;5.43;;
14584;SDS011;7379;51.506;11.876;2023-05-07T01:43:51;6.15;;;5.35;;
14584;SDS011;7379;51.506;11.876;2023-05-07T01:46:20;6.50;;;5.50;;
14584;SDS011;7379;51.506;11.876;2023-05-07T01:48:47;6.07;;;5.28;;
14584;SDS011;7379;51.506;11.876;2023-05-07T01:51:14;6.07;;;5.47;;
14584;SDS011;7379;51.506;11.876;2023-05-07T01:53:41;5.72;;;5.15;;
14584;SDS011;7379;51.506;11.876;2023-05-07T01:56:08;5.93;;;5.32;;
14584;SDS011;7379;51.506;11.876;2023-05-07T01:58:37;5.85;;;5.10;;
14584;SDS011;7379;51.506;11.876;2023-05-07T02:01:03;6.22;;;5.53;;
14584;SDS011;7379;51.506;11.876;2023-05-07T02:03:30;6.22;;;5.47;;
14584;SDS011;7379;51.506;11.876;2023-05-07T02:05:57;6.30;;;5.70;;
14584;SDS011;7379;51.506;11.876;2023-05-07T02:08:24;5.40;;;4.90;;
14584;SDS011;7379;51.506;11.876;2023-05-07T02:10:50;6.00;;;5.38;;
14584;SDS011;7379;51.506;11.876;2023-05-07T02:13:18;6.00;;;5.40;;
14584;SDS011;7379;51.506;11.876;2023-05-07T02:15:48;5.50;;;5.00;;
14584;SDS011;7379;51.506;11.876;2023-05-07T02:18:15;6.47;;;5.32;;
14584;SDS011;7379;51.506;11.876;2023-05-07T02:20:43;6.55;;;5.78;;
14584;SDS011;7379;51.506;11.876;2023-05-07T02:23:09;6.15;;;5.55;;
14584;SDS011;7379;51.506;11.876;2023-05-07T02:25:36;6.57;;;5.70;;
14584;SDS011;7379;51.506;11.876;2023-05-07T02:28:04;6.18;;;5.47;;
14584;SDS011;7379;51.506;11.876;2023-05-07T02:30:31;6.03;;;5.40;;
14584;SDS011;7379;51.506;11.876;2023-05-07T02:32:59;6.45;;;5.47;;
14584;SDS011;7379;51.506;11.876;2023-05-07T02:35:26;5.95;;;5.35;;
14584;SDS011;7379;51.506;11.876;2023-05-07T02:37:53;5.57;;;4.93;;
14584;SDS011;7379;51.506;11.876;2023-05-07T02:40:20;6.20;;;5.28;;
14584;SDS011;7379;51.506;11.876;2023-05-07T02:42:46;6.60;;;5.60;;
14584;SDS011;7379;51.506;11.876;2023-05-07T02:45:13;5.82;;;5.22;;
14584;SDS011;7379;51.506;11.876;2023-05-07T02:47:40;6.50;;;5.70;;
14584;SDS011;7379;51.506;11.876;2023-05-07T02:50:08;6.30;;;5.40;;
14584;SDS011;7379;51.506;11.876;2023-05-07T02:52:36;6.20;;;5.45;;
14584;SDS011;7379;51.506;11.876;2023-05-07T02:55:03;5.97;;;5.28;;
14584;SDS011;7379;51.506;11.876;2023-05-07T02:57:30;5.82;;;5.22;;
14584;SDS011;7379;51.506;11.876;2023-05-07T02:59:57;6.18;;;5.57;;
14584;SDS011;7379;51.506;11.876;2023-05-07T03:02:24;5.57;;;5.07;;
14584;SDS011;7379;51.506;11.876;2023-05-07T03:04:51;6.15;;;5.45;;
14584;SDS011;7379;51.506;11.876;2023-05-07T03:07:19;5.28;;;4.78;;
14584;SDS011;7379;51.506;11.876;2023-05-07T03:09:46;5.82;;;5.05;;
14584;SDS011;7379;51.506;11.876;2023-05-07T03:12:13;7.13;;;5.47;;
14584;SDS011;7379;51.506;11.876;2023-05-07T03:14:39;5.78;;;4.93;;
14584;SDS011;7379;51.506;11.876;2023-05-07T03:17:06;5.65;;;5.15;;
14584;SDS011;7379;51.506;11.876;2023-05-07T03:19:33;5.32;;;4.82;;
14584;SDS011;7379;51.506;11.876;2023-05-07T03:22:00;5.60;;;5.03;;
14584;SDS011;7379;51.506;11.876;2023-05-07T03:24:28;5.85;;;5.03;;
14584;SDS011;7379;51.506;11.876;2023-05-07T03:26:55;5.53;;;4.95;;
14584;SDS011;7379;51.506;11.876;2023-05-07T03:29:22;5.70;;;5.00;;
14584;SDS011;7379;51.506;11.876;2023-05-07T03:31:49;5.95;;;5.35;;
14584;SDS011;7379;51.506;11.876;2023-05-07T03:34:16;7.07;;;5.38;;
14584;SDS011;7379;51.506;11.876;2023-05-07T03:36:47;5.57;;;5.07;;
14584;SDS011;7379;51.506;11.876;2023-05-07T03:39:13;6.35;;;5.75;;
14584;SDS011;7379;51.506;11.876;2023-05-07T03:41:42;5.95;;;5.35;;
14584;SDS011;7379;51.506;11.876;2023-05-07T03:44:08;6.20;;;5.60;;
14584;SDS011;7379;51.506;11.876;2023-05-07T03:46:35;6.03;;;5.43;;
14584;SDS011;7379;51.506;11.876;2023-05-07T03:49:02;5.75;;;5.25;;
14584;SDS011;7379;51.506;11.876;2023-05-07T03:51:29;5.85;;;5.25;;
14584;SDS011;7379;51.506;11.876;2023-05-07T03:53:56;6.03;;;5.43;;
14584;SDS011;7379;51.506;11.876;2023-05-07T03:56:23;6.63;;;5.68;;
14584;SDS011;7379;51.506;11.876;2023-05-07T03:58:52;6.70;;;5.50;;
14584;SDS011;7379;51.506;11.876;2023-05-07T04:01:19;6.50;;;5.75;;
14584;SDS011;7379;51.506;11.876;2023-05-07T04:03:46;6.97;;;6.22;;
14584;SDS011;7379;51.506;11.876;2023-05-07T04:06:13;6.55;;;5.75;;
14584;SDS011;7379;51.506;11.876;2023-05-07T04:08:41;6.78;;;6.07;;
14584;SDS011;7379;51.506;11.876;2023-05-07T04:11:08;7.03;;;6.20;;
14584;SDS011;7379;51.506;11.876;2023-05-07T04:13:35;6.95;;;6.25;;
14584;SDS011;7379;51.506;11.876;2023-05-07T04:16:03;7.40;;;6.70;;
14584;SDS011;7379;51.506;11.876;2023-05-07T04:18:31;7.28;;;6.57;;
14584;SDS011;7379;51.506;11.876;2023-05-07T04:20:58;7.55;;;6.68;;
14584;SDS011;7379;51.506;11.876;2023-05-07T04:23:24;7.68;;;6.47;;
14584;SDS011;7379;51.506;11.876;2023-05-07T04:25:51;7.10;;;6.40;;
14584;SDS011;7379;51.506;11.876;2023-05-07T04:28:19;7.93;;;6.32;;
14584;SDS011;7379;51.506;11.876;2023-05-07T04:30:46;7.53;;;6.65;;
14584;SDS011;7379;51.506;11.876;2023-05-07T04:33:14;7.32;;;6.63;;
14584;SDS011;7379;51.506;11.876;2023-05-07T04:35:42;7.55;;;6.72;;
14584;SDS011;7379;51.506;11.876;2023-05-07T04:38:09;7.35;;;6.65;;
14584;SDS011;7379;51.506;11.876;2023-05-07T04:40:36;7.60;;;6.90;;
14584;SDS011;7379;51.506;11.876;2023-05-07T04:43:03;7.32;;;6.63;;
14584;SDS011;7379;51.506;11.876;2023-05-07T04:45:30;7.90;;;6.95;;
14584;SDS011;7379;51.506;11.876;2023-05-07T04:47:57;7.80;;;7.00;;
14584;SDS011;7379;51.506;11.876;2023-05-07T04:50:26;8.25;;;7.38;;
14584;SDS011;7379;51.506;11.876;2023-05-07T04:52:52;7.68;;;6.85;;
14584;SDS011;7379;51.506;11.876;2023-05-07T04:55:19;7.70;;;6.90;;
14584;SDS011;7379;51.506;11.876;2023-05-07T04:57:46;8.80;;;7.75;;
14584;SDS011;7379;51.506;11.876;2023-05-07T05:00:13;8.77;;;7.53;;
14584;SDS011;7379;51.506;11.876;2023-05-07T05:02:41;9.07;;;8.18;;
14584;SDS011;7379;51.506;11.876;2023-05-07T05:05:08;9.55;;;8.32;;
14584;SDS011;7379;51.506;11.876;2023-05-07T05:07:36;7.95;;;7.15;;
14584;SDS011;7379;51.506;11.876;2023-05-07T05:10:04;9.55;;;8.50;;
14584;SDS011;7379;51.506;11.876;2023-05-07T05:12:32;9.85;;;8.20;;
14584;SDS011;7379;51.506;11.876;2023-05-07T05:14:59;9.45;;;8.48;;
14584;SDS011;7379;51.506;11.876;2023-05-07T05:17:25;9.10;;;8.20;;
14584;SDS011;7379;51.506;11.876;2023-05-07T05:19:52;9.25;;;8.32;;
14584;SDS011;7379;51.506;11.876;2023-05-07T05:22:19;9.38;;;8.00;;
14584;SDS011;7379;51.506;11.876;2023-05-07T05:24:47;9.98;;;8.00;;
14584;SDS011;7379;51.506;11.876;2023-05-07T05:27:14;8.95;;;8.05;;
14584;SDS011;7379;51.506;11.876;2023-05-07T05:29:41;10.27;;;8.75;;
14584;SDS011;7379;51.506;11.876;2023-05-07T05:32:08;8.75;;;7.85;;
14584;SDS011;7379;51.506;11.876;2023-05-07T05:34:35;9.50;;;8.05;;
14584;SDS011;7379;51.506;11.876;2023-05-07T05:37:01;9.73;;;8.70;;
14584;SDS011;7379;51.506;11.876;2023-05-07T05:39:28;9.75;;;8.75;;
14584;SDS011;7379;51.506;11.876;2023-05-07T05:41:57;9.20;;;8.18;;
14584;SDS011;7379;51.506;11.876;2023-05-07T05:44:23;10.07;;;8.75;;
14584;SDS011;7379;51.506;11.876;2023-05-07T05:46:50;10.05;;;8.30;;
14584;SDS011;7379;51.506;11.876;2023-05-07T05:49:20;9.85;;;8.32;;
14584;SDS011;7379;51.506;11.876;2023-05-07T05:51:46;9.60;;;8.60;;
14584;SDS011;7379;51.506;11.876;2023-05-07T05:54:13;8.93;;;8.00;;
14584;SDS011;7379;51.506;11.876;2023-05-07T05:56:41;9.60;;;8.60;;
14584;SDS011;7379;51.506;11.876;2023-05-07T05:59:09;9.40;;;8.40;;
14584;SDS011;7379;51.506;11.876;2023-05-07T06:01:36;8.98;;;7.97;;
14584;SDS011;7379;51.506;11.876;2023-05-07T06:04:03;9.05;;;8.15;;
14584;SDS011;7379;51.506;11.876;2023-05-07T06:06:30;9.13;;;8.20;;
14584;SDS011;7379;51.506;11.876;2023-05-07T06:08:57;9.35;;;8.23;;
14584;SDS011;7379;51.506;11.876;2023-05-07T06:11:24;9.45;;;7.97;;
14584;SDS011;7379;51.506;11.876;2023-05-07T06:13:51;9.55;;;8.00;;
14584;SDS011;7379;51.506;11.876;2023-05-07T06:16:19;8.55;;;7.72;;
14584;SDS011;7379;51.506;11.876;2023-05-07T06:18:46;8.77;;;7.88;;
14584;SDS011;7379;51.506;11.876;2023-05-07T06:21:13;9.77;;;7.90;;
14584;SDS011;7379;51.506;11.876;2023-05-07T06:23:40;9.23;;;8.15;;
14584;SDS011;7379;51.506;11.876;2023-05-07T06:26:06;8.82;;;7.25;;
14584;SDS011;7379;51.506;11.876;2023-05-07T06:28:33;7.80;;;7.00;;
14584;SDS011;7379;51.506;11.876;2023-05-07T06:31:10;8.77;;;7.88;;
14584;SDS011;7379;51.506;11.876;2023-05-07T06:33:39;8.45;;;7.40;;
14584;SDS011;7379;51.506;11.876;2023-05-07T06:36:06;8.05;;;7.25;;
14584;SDS011;7379;51.506;11.876;2023-05-07T06:38:33;8.65;;;7.40;;
14584;SDS011;7379;51.506;11.876;2023-05-07T06:41:00;8.30;;;7.30;;
14584;SDS011;7379;51.506;11.876;2023-05-07T06:43:26;7.97;;;7.18;;
14584;SDS011;7379;51.506;11.876;2023-05-07T06:45:53;8.30;;;7.30;;
14584;SDS011;7379;51.506;11.876;2023-05-07T06:48:20;7.75;;;6.95;;
14584;SDS011;7379;51.506;11.876;2023-05-07T06:50:48;7.60;;;6.78;;
14584;SDS011;7379;51.506;11.876;2023-05-07T06:53:15;8.13;;;7.32;;
14584;SDS011;7379;51.506;11.876;2023-05-07T06:55:42;7.90;;;6.28;;
14584;SDS011;7379;51.506;11.876;2023-05-07T06:58:09;7.53;;;6.60;;
14584;SDS011;7379;51.506;11.876;2023-05-07T07:00:35;6.80;;;6.10;;
14584;SDS011;7379;51.506;11.876;2023-05-07T07:03:02;7.15;;;6.45;;
14584;SDS011;7379;51.506;11.876;2023-05-07T07:05:29;7.03;;;6.32;;
14584;SDS011;7379;51.506;11.876;2023-05-07T07:07:57;6.78;;;6.00;;
14584;SDS011;7379;51.506;11.876;2023-05-07T07:10:24;7.53;;;6.22;;
14584;SDS011;7379;51.506;11.876;2023-05-07T07:12:51;6.07;;;5.47;;
14584;SDS011;7379;51.506;11.876;2023-05-07T07:15:19;6.25;;;5.65;;
14584;SDS011;7379;51.506;11.876;2023-05-07T07:17:46;6.15;;;5.55;;
14584;SDS011;7379;51.506;11.876;2023-05-07T07:20:14;6.53;;;5.57;;
14584;SDS011;7379;51.506;11.876;2023-05-07T07:22:41;5.47;;;4.97;;
14584;SDS011;7379;51.506;11.876;2023-05-07T07:25:09;6.20;;;5.30;;
14584;SDS011;7379;51.506;11.876;2023-05-07T07:27:37;6.53;;;5.10;;
14584;SDS011;7379;51.506;11.876;2023-05-07T07:30:05;5.70;;;5.20;;
14584;SDS011;7379;51.506;11.876;2023-05-07T07:32:33;5.63;;;5.13;;
14584;SDS011;7379;51.506;11.876;2023-05-07T07:35:00;6.88;;;5.32;;
14584;SDS011;7379;51.506;11.876;2023-05-07T07:37:27;5.70;;;5.20;;
14584;SDS011;7379;51.506;11.876;2023-05-07T07:39:54;5.60;;;5.00;;
14584;SDS011;7379;51.506;11.876;2023-05-07T07:42:23;7.20;;;6.50;;
14584;SDS011;7379;51.506;11.876;2023-05-07T07:44:50;7.60;;;6.90;;
14584;SDS011;7379;51.506;11.876;2023-05-07T07:47:16;13.10;;;8.25;;
14584;SDS011;7379;51.506;11.876;2023-05-07T07:49:43;8.38;;;7.53;;
14584;SDS011;7379;51.506;11.876;2023-05-07T07:52:10;9.23;;;7.43;;
14584;SDS011;7379;51.506;11.876;2023-05-07T07:54:37;9.85;;;7.80;;
14584;SDS011;7379;51.506;11.876;2023-05-07T07:57:04;11.00;;;7.55;;
14584;SDS011;7379;51.506;11.876;2023-05-07T07:59:32;9.45;;;7.07;;
14584;SDS011;7379;51.506;11.876;2023-05-07T08:01:59;9.85;;;7.80;;
14584;SDS011;7379;51.506;11.876;2023-05-07T08:04:25;8.20;;;7.40;;
14584;SDS011;7379;51.506;11.876;2023-05-07T08:06:52;8.80;;;7.30;;
14584;SDS011;7379;51.506;11.876;2023-05-07T08:09:21;8.38;;;7.55;;
14584;SDS011;7379;51.506;11.876;2023-05-07T08:11:47;8.73;;;7.75;;
14584;SDS011;7379;51.506;11.876;2023-05-07T08:14:14;9.02;;;7.78;;
14584;SDS011;7379;51.506;11.876;2023-05-07T08:16:43;9.50;;;7.20;;
14584;SDS011;7379;51.506;11.876;2023-05-07T08:19:09;8.85;;;7.97;;
14584;SDS011;7379;51.506;11.876;2023-05-07T08:21:38;8.88;;;7.97;;
14584;SDS011;7379;51.506;11.876;2023-05-07T08:24:05;8.73;;;7.60;;
14584;SDS011;7379;51.506;11.876;2023-05-07T08:26:32;8.93;;;7.53;;
14584;SDS011;7379;51.506;11.876;2023-05-07T08:29:00;8.32;;;7.53;;
14584;SDS011;7379;51.506;11.876;2023-05-07T08:31:27;7.60;;;6.90;;
14584;SDS011;7379;51.506;11.876;2023-05-07T08:33:55;6.95;;;6.30;;
14584;SDS011;7379;51.506;11.876;2023-05-07T08:36:23;7.63;;;6.90;;
14584;SDS011;7379;51.506;11.876;2023-05-07T08:38:50;7.95;;;7.15;;
14584;SDS011;7379;51.506;11.876;2023-05-07T08:41:17;8.00;;;7.20;;
14584;SDS011;7379;51.506;11.876;2023-05-07T08:43:46;7.85;;;7.07;;
14584;SDS011;7379;51.506;11.876;2023-05-07T08:46:16;6.97;;;6.28;;
14584;SDS011;7379;51.506;11.876;2023-05-07T08:48:44;7.45;;;6.75;;
14584;SDS011;7379;51.506;11.876;2023-05-07T08:51:13;7.20;;;6.50;;
14584;SDS011;7379;51.506;11.876;2023-05-07T08:53:42;6.82;;;6.00;;
14584;SDS011;7379;51.506;11.876;2023-05-07T08:56:09;7.20;;;6.50;;
14584;SDS011;7379;51.506;11.876;2023-05-07T08:58:36;6.40;;;5.80;;
14584;SDS011;7379;51.506;11.876;2023-05-07T09:01:05;6.50;;;5.90;;
14584;SDS011;7379;51.506;11.876;2023-05-07T09:03:33;6.80;;;6.10;;
14584;SDS011;7379;51.506;11.876;2023-05-07T09:06:01;7.07;;;6.38;;
14584;SDS011;7379;51.506;11.876;2023-05-07T09:08:29;7.10;;;6.40;;
14584;SDS011;7379;51.506;11.876;2023-05-07T09:10:55;6.10;;;5.60;;
14584;SDS011;7379;51.506;11.876;2023-05-07T09:13:22;6.63;;;5.93;;
14584;SDS011;7379;51.506;11.876;2023-05-07T09:15:49;6.22;;;5.63;;
14584;SDS011;7379;51.506;11.876;2023-05-07T09:18:16;6.03;;;5.53;;
14584;SDS011;7379;51.506;11.876;2023-05-07T09:20:43;6.00;;;5.40;;
14584;SDS011;7379;51.506;11.876;2023-05-07T09:23:10;5.85;;;5.35;;
14584;SDS011;7379;51.506;11.876;2023-05-07T09:25:38;5.85;;;5.30;;
14584;SDS011;7379;51.506;11.876;2023-05-07T09:28:05;5.88;;;5.07;;
14584;SDS011;7379;51.506;11.876;2023-05-07T09:30:32;5.60;;;5.07;;
14584;SDS011;7379;51.506;11.876;2023-05-07T09:33:00;5.80;;;5.30;;
14584;SDS011;7379;51.506;11.876;2023-05-07T09:35:29;5.85;;;5.35;;
14584;SDS011;7379;51.506;11.876;2023-05-07T09:37:56;5.78;;;5.18;;
14584;SDS011;7379;51.506;11.876;2023-05-07T09:40:24;5.85;;;5.35;;
14584;SDS011;7379;51.506;11.876;2023-05-07T09:42:53;5.60;;;5.10;;
14584;SDS011;7379;51.506;11.876;2023-05-07T09:45:21;5.72;;;5.22;;
14584;SDS011;7379;51.506;11.876;2023-05-07T09:47:49;5.65;;;5.15;;
14584;SDS011;7379;51.506;11.876;2023-05-07T09:50:21;6.20;;;5.70;;
14584;SDS011;7379;51.506;11.876;2023-05-07T09:52:51;6.45;;;5.85;;
14584;SDS011;7379;51.506;11.876;2023-05-07T09:55:19;5.80;;;5.30;;
14584;SDS011;7379;51.506;11.876;2023-05-07T09:57:46;6.18;;;5.68;;
14584;SDS011;7379;51.506;11.876;2023-05-07T10:00:17;7.28;;;6.57;;
14584;SDS011;7379;51.506;11.876;2023-05-07T10:02:46;7.80;;;6.78;;
14584;SDS011;7379;51.506;11.876;2023-05-07T10:05:14;8.90;;;7.70;;
14584;SDS011;7379;51.506;11.876;2023-05-07T10:07:42;20.00;;;8.25;;
14584;SDS011;7379;51.506;11.876;2023-05-07T10:10:10;14.93;;;8.05;;
14584;SDS011;7379;51.506;11.876;2023-05-07T10:12:38;11.80;;;8.23;;
14584;SDS011;7379;51.506;11.876;2023-05-07T10:15:06;11.73;;;7.93;;
14584;SDS011;7379;51.506;11.876;2023-05-07T10:17:36;9.38;;;7.80;;
14584;SDS011;7379;51.506;11.876;2023-05-07T10:20:03;10.77;;;7.65;;
14584;SDS011;7379;51.506;11.876;2023-05-07T10:22:33;10.32;;;7.80;;
14584;SDS011;7379;51.506;11.876;2023-05-07T10:25:05;10.63;;;7.53;;
14584;SDS011;7379;51.506;11.876;2023-05-07T10:27:39;8.90;;;8.00;;
14584;SDS011;7379;51.506;11.876;2023-05-07T10:30:10;256.73;;;23.58;;
14584;SDS011;7379;51.506;11.876;2023-05-07T10:32:48;112.13;;;17.77;;
14584;SDS011;7379;51.506;11.876;2023-05-07T10:35:17;48.47;;;11.30;;
14584;SDS011;7379;51.506;11.876;2023-05-07T10:37:47;30.55;;;10.57;;
14584;SDS011;7379;51.506;11.876;2023-05-07T10:40:15;35.08;;;10.15;;
14584;SDS011;7379;51.506;11.876;2023-05-07T10:42:53;34.65;;;10.00;;
14584;SDS011;7379;51.506;11.876;2023-05-07T10:45:22;29.35;;;10.07;;
14584;SDS011;7379;51.506;11.876;2023-05-07T10:50:37;17.58;;;9.20;;
14584;SDS011;7379;51.506;11.876;2023-05-07T10:53:20;12.00;;;8.82;;
14584;SDS011;7379;51.506;11.876;2023-05-07T10:55:51;18.00;;;8.45;;
14584;SDS011;7379;51.506;11.876;2023-05-07T10:58:43;14.48;;;8.57;;
14584;SDS011;7379;51.506;11.876;2023-05-07T11:01:10;16.30;;;8.57;;
14584;SDS011;7379;51.506;11.876;2023-05-07T11:04:11;15.15;;;8.80;;
14584;SDS011;7379;51.506;11.876;2023-05-07T11:09:58;11.23;;;8.40;;
14584;SDS011;7379;51.506;11.876;2023-05-07T11:18:11;10.77;;;8.88;;
14584;SDS011;7379;51.506;11.876;2023-05-07T11:20:45;9.88;;;8.85;;
14584;SDS011;7379;51.506;11.876;2023-05-07T11:26:26;10.45;;;8.57;;
14584;SDS011;7379;51.506;11.876;2023-05-07T11:28:55;13.20;;;8.38;;
14584;SDS011;7379;51.506;11.876;2023-05-07T11:31:23;9.32;;;8.25;;
14584;SDS011;7379;51.506;11.876;2023-05-07T11:33:51;9.73;;;8.05;;
14584;SDS011;7379;51.506;11.876;2023-05-07T11:36:19;9.02;;;8.23;;
14584;SDS011;7379;51.506;11.876;2023-05-07T11:38:46;9.35;;;8.40;;
14584;SDS011;7379;51.506;11.876;2023-05-07T11:41:15;8.52;;;7.72;;
14584;SDS011;7379;51.506;11.876;2023-05-07T11:43:55;8.32;;;7.53;;
14584;SDS011;7379;51.506;11.876;2023-05-07T11:46:23;7.82;;;7.13;;
14584;SDS011;7379;51.506;11.876;2023-05-07T11:48:50;8.10;;;7.35;;
14584;SDS011;7379;51.506;11.876;2023-05-07T11:51:20;9.48;;;8.27;;
14584;SDS011;7379;51.506;11.876;2023-05-07T11:53:48;7.90;;;7.20;;
14584;SDS011;7379;51.506;11.876;2023-05-07T11:56:17;8.70;;;7.80;;
14584;SDS011;7379;51.506;11.876;2023-05-07T11:58:45;8.02;;;7.32;;
14584;SDS011;7379;51.506;11.876;2023-05-07T12:01:13;7.78;;;7.10;;
14584;SDS011;7379;51.506;11.876;2023-05-07T12:03:41;8.07;;;7.30;;
14584;SDS011;7379;51.506;11.876;2023-05-07T12:06:09;7.60;;;6.90;;
14584;SDS011;7379;51.506;11.876;2023-05-07T12:08:38;8.18;;;7.38;;
14584;SDS011;7379;51.506;11.876;2023-05-07T12:11:08;8.73;;;7.50;;
14584;SDS011;7379;51.506;11.876;2023-05-07T12:13:38;8.30;;;7.60;;
14584;SDS011;7379;51.506;11.876;2023-05-07T12:16:05;8.60;;;7.80;;
14584;SDS011;7379;51.506;11.876;2023-05-07T12:18:33;8.80;;;8.00;;
14584;SDS011;7379;51.506;11.876;2023-05-07T12:21:01;8.88;;;8.07;;
14584;SDS011;7379;51.506;11.876;2023-05-07T12:23:30;9.32;;;8.40;;
14584;SDS011;7379;51.506;11.876;2023-05-07T12:25:57;8.23;;;7.53;;
14584;SDS011;7379;51.506;11.876;2023-05-07T12:28:25;8.65;;;7.85;;
14584;SDS011;7379;51.506;11.876;2023-05-07T12:30:53;8.20;;;7.50;;
14584;SDS011;7379;51.506;11.876;2023-05-07T12:33:23;8.75;;;7.95;;
14584;SDS011;7379;51.506;11.876;2023-05-07T12:35:50;7.78;;;7.07;;
14584;SDS011;7379;51.506;11.876;2023-05-07T12:38:20;8.13;;;7.35;;
14584;SDS011;7379;51.506;11.876;2023-05-07T12:40:47;8.35;;;7.55;;
14584;SDS011;7379;51.506;11.876;2023-05-07T12:43:16;7.70;;;7.00;;
14584;SDS011;7379;51.506;11.876;2023-05-07T12:45:43;7.47;;;6.80;;
14584;SDS011;7379;51.506;11.876;2023-05-07T12:48:13;6.57;;;5.93;;
14584;SDS011;7379;51.506;11.876;2023-05-07T12:50:40;6.75;;;6.15;;
14584;SDS011;7379;51.506;11.876;2023-05-07T12:53:08;6.85;;;6.13;;
14584;SDS011;7379;51.506;11.876;2023-05-07T12:55:41;7.10;;;6.40;;
14584;SDS011;7379;51.506;11.876;2023-05-07T12:58:14;6.65;;;6.05;;
14584;SDS011;7379;51.506;11.876;2023-05-07T13:00:42;6.82;;;6.20;;
14584;SDS011;7379;51.506;11.876;2023-05-07T13:03:10;6.78;;;6.18;;
14584;SDS011;7379;51.506;11.876;2023-05-07T13:05:38;6.72;;;6.13;;
14584;SDS011;7379;51.506;11.876;2023-05-07T13:08:05;7.35;;;6.22;;
14584;SDS011;7379;51.506;11.876;2023-05-07T13:10:34;7.88;;;6.90;;
14584;SDS011;7379;51.506;11.876;2023-05-07T13:13:01;10.30;;;6.80;;
14584;SDS011;7379;51.506;11.876;2023-05-07T13:15:28;7.70;;;6.90;;
14584;SDS011;7379;51.506;11.876;2023-05-07T13:17:55;7.50;;;6.90;;
14584;SDS011;7379;51.506;11.876;2023-05-07T13:20:22;8.27;;;7.20;;
14584;SDS011;7379;51.506;11.876;2023-05-07T13:22:51;7.15;;;6.50;;
14584;SDS011;7379;51.506;11.876;2023-05-07T13:25:17;9.48;;;7.53;;
14584;SDS011;7379;51.506;11.876;2023-05-07T13:27:44;8.10;;;7.30;;
14584;SDS011;7379;51.506;11.876;2023-05-07T13:30:11;7.45;;;6.75;;
14584;SDS011;7379;51.506;11.876;2023-05-07T13:32:38;7.60;;;7.00;;
14584;SDS011;7379;51.506;11.876;2023-05-07T13:35:05;8.18;;;7.38;;
14584;SDS011;7379;51.506;11.876;2023-05-07T13:37:33;9.63;;;7.18;;
14584;SDS011;7379;51.506;11.876;2023-05-07T13:40:01;8.43;;;7.63;;
14584;SDS011;7379;51.506;11.876;2023-05-07T13:42:28;7.38;;;6.68;;
14584;SDS011;7379;51.506;11.876;2023-05-07T13:44:55;7.53;;;6.82;;
14584;SDS011;7379;51.506;11.876;2023-05-07T13:47:22;7.85;;;7.15;;
14584;SDS011;7379;51.506;11.876;2023-05-07T13:49:49;7.97;;;7.18;;
14584;SDS011;7379;51.506;11.876;2023-05-07T13:52:16;6.82;;;6.22;;
14584;SDS011;7379;51.506;11.876;2023-05-07T13:54:43;7.50;;;6.32;;
14584;SDS011;7379;51.506;11.876;2023-05-07T13:57:11;7.60;;;6.80;;
14584;SDS011;7379;51.506;11.876;2023-05-07T13:59:38;6.68;;;6.07;;
14584;SDS011;7379;51.506;11.876;2023-05-07T14:02:05;6.97;;;6.38;;
14584;SDS011;7379;51.506;11.876;2023-05-07T14:04:32;6.75;;;6.10;;
14584;SDS011;7379;51.506;11.876;2023-05-07T14:06:59;6.25;;;5.65;;
14584;SDS011;7379;51.506;11.876;2023-05-07T14:09:26;6.38;;;5.78;;
14584;SDS011;7379;51.506;11.876;2023-05-07T14:11:53;6.32;;;5.45;;
14584;SDS011;7379;51.506;11.876;2023-05-07T14:14:21;6.15;;;5.55;;
14584;SDS011;7379;51.506;11.876;2023-05-07T14:16:48;6.00;;;5.50;;
14584;SDS011;7379;51.506;11.876;2023-05-07T14:19:15;5.85;;;5.30;;
14584;SDS011;7379;51.506;11.876;2023-05-07T14:21:42;7.60;;;5.47;;
14584;SDS011;7379;51.506;11.876;2023-05-07T14:24:08;10.30;;;5.28;;
14584;SDS011;7379;51.506;11.876;2023-05-07T14:26:35;6.45;;;5.45;;
14584;SDS011;7379;51.506;11.876;2023-05-07T14:29:02;6.53;;;5.15;;
14584;SDS011;7379;51.506;11.876;2023-05-07T14:31:31;6.30;;;4.93;;
14584;SDS011;7379;51.506;11.876;2023-05-07T14:33:58;5.22;;;4.72;;
14584;SDS011;7379;51.506;11.876;2023-05-07T14:36:25;5.10;;;4.68;;
14584;SDS011;7379;51.506;11.876;2023-05-07T14:38:52;5.55;;;4.70;;
14584;SDS011;7379;51.506;11.876;2023-05-07T14:41:19;5.85;;;4.85;;
14584;SDS011;7379;51.506;11.876;2023-05-07T14:43:46;6.25;;;4.90;;
14584;SDS011;7379;51.506;11.876;2023-05-07T14:46:15;5.20;;;4.70;;
14584;SDS011;7379;51.506;11.876;2023-05-07T14:48:44;5.65;;;5.00;;
14584;SDS011;7379;51.506;11.876;2023-05-07T14:51:11;5.28;;;4.78;;
14584;SDS011;7379;51.506;11.876;2023-05-07T14:53:38;5.53;;;4.88;;
14584;SDS011;7379;51.506;11.876;2023-05-07T14:56:05;5.93;;;4.97;;
14584;SDS011;7379;51.506;11.876;2023-05-07T14:58:32;5.38;;;4.88;;
14584;SDS011;7379;51.506;11.876;2023-05-07T15:01:00;5.45;;;4.95;;
14584;SDS011;7379;51.506;11.876;2023-05-07T15:03:27;6.10;;;4.97;;